createdAt,value
2019-06-10T00:03:17.347Z,2.55
2019-06-10T00:08:23.254Z,2.60
2019-06-10T00:13:28.685Z,2.52
2019-06-10T00:18:41.841Z,2.37
2019-06-10T00:23:41.370Z,2.50
2019-06-10T00:28:48.297Z,2.60
2019-06-10T00:33:53.799Z,2.77
2019-06-10T00:39:04.033Z,2.55
2019-06-10T00:44:12.566Z,2.50
2019-06-10T00:49:16.583Z,2.52
2019-06-10T00:54:22.121Z,2.60
2019-06-10T00:59:27.391Z,2.77
2019-06-10T01:04:32.864Z,2.60
2019-06-10T01:09:38.195Z,2.37
2019-06-10T01:14:43.719Z,2.70
2019-06-10T01:19:50.913Z,3.00
2019-06-10T01:24:56.537Z,2.92
2019-06-10T01:30:09.622Z,2.75
2019-06-10T01:35:11.520Z,2.60
2019-06-10T01:40:17.685Z,2.50
2019-06-10T01:45:23.446Z,2.80
2019-06-10T01:50:31.070Z,3.08
2019-06-10T01:55:35.937Z,2.80
2019-06-10T02:01:06.337Z,2.87
2019-06-10T02:06:16.031Z,3.02
2019-06-10T02:11:23.247Z,3.10
2019-06-10T02:16:26.726Z,2.83
2019-06-10T02:21:31.970Z,3.27
2019-06-10T02:26:37.688Z,3.55
2019-06-10T02:31:43.713Z,3.00
2019-06-10T02:36:49.137Z,3.05
2019-06-10T02:41:57.541Z,3.20
2019-06-10T02:47:03.564Z,3.10
2019-06-10T02:52:20.053Z,3.20
2019-06-10T02:57:32.989Z,3.22
2019-06-10T03:02:36.225Z,3.40
2019-06-10T03:07:39.405Z,3.55
2019-06-10T03:12:44.718Z,3.50
2019-06-10T03:17:52.133Z,3.40
2019-06-10T03:22:57.093Z,3.50
2019-06-10T03:28:03.083Z,3.40
2019-06-10T03:33:08.435Z,3.30
2019-06-10T03:38:14.090Z,3.67
2019-06-10T03:43:19.427Z,3.40
2019-06-10T03:48:26.769Z,3.60
2019-06-10T03:53:33.624Z,3.67
2019-06-10T03:58:39.842Z,3.60
2019-06-10T04:03:45.140Z,3.60
2019-06-10T04:08:52.213Z,3.77
2019-06-10T04:13:57.379Z,3.30
2019-06-10T04:19:02.828Z,3.40
2019-06-10T04:24:09.154Z,3.55
2019-06-10T04:29:14.466Z,3.58
2019-06-10T04:34:20.480Z,3.70
2019-06-10T04:39:28.043Z,3.62
2019-06-10T04:44:34.276Z,3.50
2019-06-10T04:49:39.664Z,3.72
2019-06-10T04:54:44.915Z,3.60
2019-06-10T04:59:50.161Z,3.57
2019-06-10T05:04:55.701Z,3.50
2019-06-10T05:10:03.209Z,3.90
2019-06-10T05:15:08.661Z,3.50
2019-06-10T05:20:14.173Z,3.30
2019-06-10T05:25:20.413Z,3.20
2019-06-10T05:30:28.202Z,3.80
2019-06-10T05:35:34.705Z,3.50
2019-06-10T05:40:40.028Z,3.60
2019-06-10T05:45:45.275Z,3.25
2019-06-10T05:51:00.166Z,3.40
2019-06-10T05:55:58.247Z,3.33
2019-06-10T06:01:03.548Z,3.50
2019-06-10T06:06:08.782Z,4.10
2019-06-10T06:11:14.309Z,3.20
2019-06-10T06:16:19.606Z,3.30
2019-06-10T06:21:31.482Z,3.80
2019-06-10T06:26:37.924Z,3.47
2019-06-10T06:31:42.966Z,3.70
2019-06-10T06:36:48.198Z,3.20
2019-06-10T06:41:53.893Z,3.10
2019-06-10T06:46:59.217Z,3.27
2019-06-10T06:52:04.586Z,3.33
2019-06-10T06:57:10.027Z,3.42
2019-06-10T07:02:16.239Z,3.30
2019-06-10T07:07:22.438Z,3.40
2019-06-10T07:12:31.367Z,3.35
2019-06-10T07:17:39.512Z,3.25
2019-06-10T07:22:46.579Z,3.20
2019-06-10T07:27:52.726Z,3.30
2019-06-10T07:32:58.297Z,3.33
2019-06-10T07:38:03.676Z,3.45
2019-06-10T07:43:08.954Z,3.37
2019-06-10T07:48:14.453Z,3.60
2019-06-10T07:53:22.110Z,3.50
2019-06-10T07:58:28.869Z,3.60
2019-06-10T08:03:35.299Z,3.52
2019-06-10T08:08:45.022Z,3.30
2019-06-10T08:13:48.728Z,3.20
2019-06-10T08:19:21.006Z,3.20
2019-06-10T08:24:03.454Z,3.45
2019-06-10T08:29:08.768Z,3.37
2019-06-10T08:34:14.757Z,3.22
2019-06-10T08:39:22.501Z,3.50
2019-06-10T08:44:27.299Z,3.30
2019-06-10T08:49:33.049Z,3.33
2019-06-10T08:54:42.798Z,3.20
2019-06-10T08:59:49.048Z,3.75
2019-06-10T09:04:54.908Z,3.60
2019-06-10T09:10:02.794Z,3.20
2019-06-10T09:15:07.688Z,3.40
2019-06-10T09:20:14.541Z,3.15
2019-06-10T09:25:22.567Z,3.05
2019-06-10T09:30:28.293Z,2.90
2019-06-10T09:35:33.971Z,2.85
2019-06-10T09:40:59.930Z,2.98
2019-06-10T09:45:58.779Z,3.10
2019-06-10T09:51:04.200Z,2.92
2019-06-10T09:56:09.618Z,3.00
2019-06-10T10:01:15.109Z,2.90
2019-06-10T10:06:20.435Z,2.62
2019-06-10T10:11:28.446Z,2.97
2019-06-10T10:16:34.058Z,2.77
2019-06-10T10:21:46.919Z,2.72
2019-06-10T10:26:51.275Z,2.80
2019-06-10T10:31:56.430Z,2.67
2019-06-10T10:37:02.886Z,2.62
2019-06-10T10:42:08.690Z,2.40
2019-06-10T10:47:14.070Z,2.50
2019-06-10T10:52:22.355Z,2.50
2019-06-10T10:57:27.112Z,2.43
2019-06-10T11:02:32.556Z,2.55
2019-06-10T11:07:38.538Z,2.67
2019-06-10T11:12:46.979Z,2.60
2019-06-10T11:17:56.342Z,2.50
2019-06-10T11:23:02.935Z,2.80
2019-06-10T11:28:08.139Z,2.65
2019-06-10T11:33:13.544Z,2.55
2019-06-10T11:38:18.945Z,3.50
2019-06-10T11:43:24.577Z,2.55
2019-06-10T11:48:32.562Z,2.67
2019-06-10T11:53:37.121Z,2.70
2019-06-10T11:58:43.617Z,2.70
2019-06-10T12:03:49.033Z,2.75
2019-06-10T12:08:58.320Z,2.80
2019-06-10T12:14:04.376Z,2.97
2019-06-10T12:19:08.387Z,2.63
2019-06-10T12:24:13.818Z,2.55
2019-06-10T12:29:19.377Z,2.90
2019-06-10T12:34:24.939Z,2.80
2019-06-10T12:39:30.351Z,2.73
2019-06-10T12:44:35.690Z,2.70
2019-06-10T12:49:42.796Z,2.60
2019-06-10T12:54:48.171Z,2.50
2019-06-10T12:59:54.093Z,2.60
2019-06-10T13:04:59.704Z,2.80
2019-06-10T13:10:06.526Z,2.60
2019-06-10T13:15:12.890Z,2.67
2019-06-10T13:20:18.245Z,2.73
2019-06-10T13:25:23.833Z,2.65
2019-06-10T13:30:29.119Z,2.60
2019-06-10T13:35:34.702Z,2.67
2019-06-10T13:40:40.057Z,2.77
2019-06-10T13:45:45.866Z,2.80
2019-06-10T13:50:52.882Z,2.63
2019-06-10T13:56:21.987Z,2.60
2019-06-10T14:01:11.578Z,2.50
2019-06-10T14:06:32.328Z,2.70
2019-06-10T14:11:22.061Z,2.90
2019-06-10T14:16:27.121Z,2.90
2019-06-10T14:21:33.150Z,2.75
2019-06-10T14:26:44.743Z,2.60
2019-06-10T14:31:47.798Z,2.73
2019-06-10T14:36:52.660Z,2.70
2019-06-10T14:41:59.424Z,2.60
2019-06-10T14:47:04.743Z,2.90
2019-06-10T14:52:13.599Z,2.85
2019-06-10T14:57:17.209Z,2.85
2019-06-10T15:02:23.548Z,2.80
2019-06-10T15:07:29.025Z,3.10
2019-06-10T15:12:34.253Z,3.10
2019-06-10T15:17:39.518Z,3.10
2019-06-10T15:22:44.895Z,3.10
2019-06-10T15:27:52.628Z,3.30
2019-06-10T15:32:57.172Z,3.62
2019-06-10T15:38:04.110Z,3.03
2019-06-10T15:43:09.729Z,3.00
2019-06-10T15:48:18.257Z,3.07
2019-06-10T15:53:25.873Z,3.05
2019-06-10T15:58:32.120Z,2.93
2019-06-10T16:03:38.597Z,3.30
2019-06-10T16:08:43.970Z,2.98
2019-06-10T16:13:49.541Z,3.10
2019-06-10T16:18:54.937Z,2.98
2019-06-10T16:24:02.585Z,3.00
2019-06-10T16:29:07.332Z,3.10
2019-06-10T16:34:14.696Z,3.10
2019-06-10T16:39:21.748Z,3.30
2019-06-10T16:44:28.293Z,3.30
2019-06-10T16:49:33.756Z,3.42
2019-06-10T16:54:39.099Z,3.33
2019-06-10T16:59:44.497Z,3.65
2019-06-10T17:04:52.507Z,2.90
2019-06-10T17:09:57.595Z,3.57
2019-06-10T17:15:03.554Z,3.27
2019-06-10T17:20:09.252Z,3.50
2019-06-10T17:25:14.582Z,3.43
2019-06-10T17:30:22.391Z,3.43
2019-06-10T17:35:28.606Z,3.75
2019-06-10T17:40:34.377Z,3.70
2019-06-10T17:45:42.070Z,3.60
2019-06-10T17:50:46.865Z,3.72
2019-06-10T17:55:52.234Z,3.65
2019-06-10T18:00:57.744Z,3.77
2019-06-10T18:06:03.058Z,3.50
2019-06-10T18:11:09.412Z,3.92
2019-06-10T18:16:14.837Z,3.63
2019-06-10T18:21:22.378Z,3.77
2019-06-10T18:26:28.871Z,3.77
2019-06-10T18:31:35.695Z,3.70
2019-06-10T18:36:42.724Z,3.80
2019-06-10T18:41:48.240Z,3.60
2019-06-10T18:46:53.518Z,3.60
2019-06-10T18:51:58.847Z,3.72
2019-06-10T18:57:04.141Z,3.40
2019-06-10T19:02:09.535Z,3.70
2019-06-10T19:07:16.547Z,3.60
2019-06-10T19:12:22.418Z,3.70
2019-06-10T19:17:27.789Z,3.80
2019-06-10T19:22:35.931Z,4.00
2019-06-10T19:27:43.957Z,3.77
2019-06-10T19:32:47.656Z,4.07
2019-06-10T19:37:53.256Z,3.80
2019-06-10T19:42:58.858Z,3.80
2019-06-10T19:48:04.940Z,3.72
2019-06-10T19:53:10.298Z,4.00
2019-06-10T19:58:16.554Z,3.83
2019-06-10T20:03:22.378Z,3.92
2019-06-10T20:08:28.633Z,4.03
2019-06-10T20:13:34.392Z,3.98
2019-06-10T20:18:40.486Z,4.03
2019-06-10T20:23:47.744Z,4.10
2019-06-10T20:28:55.476Z,3.95
2019-06-10T20:34:02.681Z,4.10
2019-06-10T20:39:09.764Z,4.22
2019-06-10T20:44:15.104Z,4.00
2019-06-10T20:49:22.480Z,4.13
2019-06-10T20:54:28.045Z,4.03
2019-06-10T20:59:33.383Z,3.33
2019-06-10T21:04:39.230Z,2.87
2019-06-10T21:09:47.114Z,2.70
2019-06-10T21:14:53.181Z,2.80
2019-06-10T21:19:58.554Z,2.95
2019-06-10T21:25:04.018Z,2.65
2019-06-10T21:30:11.704Z,2.40
2019-06-10T21:35:18.172Z,2.30
2019-06-10T21:40:24.152Z,2.75
2019-06-10T21:45:32.292Z,3.00
2019-06-10T21:50:36.745Z,2.40
2019-06-10T21:55:44.007Z,2.70
2019-06-10T22:01:00.850Z,2.87
2019-06-10T22:05:58.282Z,2.85
2019-06-10T22:11:04.737Z,2.27
2019-06-10T22:16:10.776Z,2.20
2019-06-10T22:21:18.087Z,2.20
2019-06-10T22:26:23.757Z,2.12
2019-06-10T22:31:32.619Z,2.10
2019-06-10T22:36:38.041Z,2.10
2019-06-10T22:41:43.901Z,2.10
2019-06-10T22:46:51.907Z,2.02
2019-06-10T22:52:00.032Z,2.35
2019-06-10T22:57:04.364Z,2.00
2019-06-10T23:02:09.951Z,2.30
2019-06-10T23:07:15.804Z,2.40
2019-06-10T23:12:21.789Z,2.25
2019-06-10T23:17:27.033Z,2.23
2019-06-10T23:22:33.493Z,2.30
2019-06-10T23:27:41.044Z,2.50
2019-06-10T23:32:47.237Z,2.10
2019-06-10T23:37:55.042Z,2.42
2019-06-10T23:43:01.654Z,2.10
2019-06-10T23:48:07.134Z,2.00
2019-06-10T23:53:13.356Z,2.30
2019-06-10T23:58:21.926Z,2.47
